createdAt,value
2019-01-04T00:04:59.068Z,101259.28
2019-01-04T00:13:14.536Z,101253.28
2019-01-04T00:17:18.766Z,101258.69
2019-01-04T00:21:23.061Z,101256.95
2019-01-04T00:25:27.272Z,101260.46
2019-01-04T00:29:31.549Z,101269.66
2019-01-04T00:33:35.867Z,101274.81
2019-01-04T00:37:40.127Z,101282.59
2019-01-04T00:41:44.375Z,101280.14
2019-01-04T00:45:48.654Z,101290.86
2019-01-04T00:49:52.840Z,101289.57
2019-01-04T00:53:57.107Z,101296.30
2019-01-04T00:58:39.373Z,101299.38
2019-01-04T01:03:21.721Z,101300.91
2019-01-04T01:08:04.349Z,101301.80
2019-01-04T01:12:47.017Z,101312.80
2019-01-04T01:17:29.358Z,101325.70
2019-01-04T01:22:10.110Z,101344.38
2019-01-04T01:26:56.219Z,101340.62
2019-01-04T01:31:38.530Z,101337.92
2019-01-04T01:36:10.299Z,101335.34
2019-01-04T01:40:52.608Z,101334.58
2019-01-04T01:50:43.992Z,101328.56
2019-01-04T01:54:48.249Z,101327.58
2019-01-04T01:58:52.491Z,101315.20
2019-01-04T02:02:56.839Z,101319.59
2019-01-04T02:07:01.101Z,101315.20
2019-01-04T02:11:05.350Z,101307.58
2019-01-04T02:15:09.726Z,101313.47
2019-01-04T02:19:14.013Z,101316.05
2019-01-04T02:23:18.241Z,101316.30
2019-01-04T02:27:22.683Z,101316.30
2019-01-04T02:31:26.928Z,101318.48
2019-01-04T02:35:31.213Z,101317.19
2019-01-04T02:39:35.429Z,101313.31
2019-01-04T02:43:39.663Z,101318.76
2019-01-04T02:47:44.248Z,101320.84
2019-01-04T02:51:48.540Z,101322.27
2019-01-04T02:55:52.808Z,101338.08
2019-01-04T02:59:57.453Z,101332.15
2019-01-04T03:04:01.758Z,101332.80
2019-01-04T03:08:06.051Z,101327.05
2019-01-04T03:12:10.316Z,101326.95
2019-01-04T03:16:14.595Z,101326.34
2019-01-04T03:20:18.837Z,101325.14
2019-01-04T03:24:23.095Z,101325.55
2019-01-04T03:28:27.325Z,101325.64
2019-01-04T03:32:31.625Z,101315.16
2019-01-04T03:36:35.864Z,101311.17
2019-01-04T03:40:40.105Z,101300.97
2019-01-04T03:44:44.362Z,101302.38
2019-01-04T03:48:48.618Z,101304.69
2019-01-04T03:52:52.848Z,101303.39
2019-01-04T03:56:57.111Z,101307.95
2019-01-04T04:01:01.389Z,101300.81
2019-01-04T04:05:05.778Z,101298.36
2019-01-04T04:09:10.054Z,101294.12
2019-01-04T04:13:14.318Z,101305.73
2019-01-04T04:17:18.612Z,101317.63
2019-01-04T04:21:22.856Z,101317.25
2019-01-04T04:25:27.117Z,101315.97
2019-01-04T04:29:31.429Z,101327.05
2019-01-04T04:33:35.713Z,101333.75
2019-01-04T04:37:39.967Z,101340.69
2019-01-04T04:41:44.225Z,101342.50
2019-01-04T04:45:48.477Z,101343.24
2019-01-04T04:49:59.842Z,101349.17
2019-01-04T04:54:04.120Z,101348.09
2019-01-04T04:58:08.396Z,101346.77
2019-01-04T05:02:12.641Z,101345.48
2019-01-04T05:06:16.931Z,101349.48
2019-01-04T05:10:21.186Z,101356.61
2019-01-04T05:14:25.456Z,101351.72
2019-01-04T05:18:29.754Z,101345.15
2019-01-04T05:22:34.017Z,101349.54
2019-01-04T05:26:38.237Z,101352.28
2019-01-04T05:30:42.539Z,101356.42
2019-01-04T05:34:46.769Z,101355.66
2019-01-04T05:38:51.360Z,101357.07
2019-01-04T05:42:55.569Z,101354.36
2019-01-04T05:46:59.955Z,101368.80
2019-01-04T05:51:04.161Z,101367.02
2019-01-04T05:55:08.896Z,101379.67
2019-01-04T05:59:13.175Z,101385.64
2019-01-04T06:03:17.454Z,101388.43
2019-01-04T06:07:21.749Z,101390.40
2019-01-04T06:11:26.013Z,101389.45
2019-01-04T06:15:30.235Z,101398.27
2019-01-04T06:19:34.524Z,101400.32
2019-01-04T06:23:38.767Z,101407.02
2019-01-04T06:27:44.171Z,101407.30
2019-01-04T06:31:49.030Z,101411.17
2019-01-04T06:35:53.287Z,101417.89
2019-01-04T06:39:57.619Z,101418.41
2019-01-04T06:44:03.052Z,101422.95
2019-01-04T06:48:07.835Z,101426.42
2019-01-04T06:52:12.137Z,101432.88
2019-01-04T06:56:16.425Z,101441.38
2019-01-04T07:00:20.671Z,101443.46
2019-01-04T07:04:24.924Z,101441.01
2019-01-04T07:08:29.192Z,101449.09
2019-01-04T07:13:12.838Z,101455.80
2019-01-04T07:17:17.061Z,101455.03
2019-01-04T07:21:21.372Z,101460.42
2019-01-04T07:25:25.638Z,101459.11
2019-01-04T07:29:30.172Z,101466.34
2019-01-04T07:33:34.447Z,101471.63
2019-01-04T07:37:38.704Z,101474.80
2019-01-04T07:41:43.002Z,101474.53
2019-01-04T07:45:47.278Z,101485.84
2019-01-04T07:49:51.505Z,101483.15
2019-01-04T07:53:55.785Z,101487.89
2019-01-04T07:58:00.144Z,101480.87
2019-01-04T08:02:42.479Z,101484.33
2019-01-04T08:06:46.783Z,101481.84
2019-01-04T08:10:51.011Z,101482.06
2019-01-04T08:14:55.316Z,101483.84
2019-01-04T08:18:59.568Z,101488.33
2019-01-04T08:23:03.847Z,101492.45
2019-01-04T08:27:08.102Z,101494.36
2019-01-04T08:31:12.364Z,101497.03
2019-01-04T08:35:16.611Z,101490.86
2019-01-04T08:39:20.872Z,101488.69
2019-01-04T08:43:25.108Z,101489.94
2019-01-04T08:47:29.404Z,101478.70
2019-01-04T08:51:33.725Z,101481.95
2019-01-04T08:55:37.922Z,101489.49
2019-01-04T08:59:42.243Z,101479.20
2019-01-04T09:03:46.524Z,101474.31
2019-01-04T09:07:50.802Z,101479.88
2019-01-04T09:11:55.093Z,101485.90
2019-01-04T09:15:59.368Z,101476.48
2019-01-04T09:20:03.720Z,101477.61
2019-01-04T09:24:07.980Z,101476.41
2019-01-04T09:28:17.908Z,101474.46
2019-01-04T09:32:18.268Z,101466.42
2019-01-04T09:36:22.551Z,101459.02
2019-01-04T09:40:27.060Z,101445.80
2019-01-04T09:44:32.867Z,101438.77
2019-01-04T09:48:37.146Z,101439.41
2019-01-04T09:52:41.665Z,101438.95
2019-01-04T09:56:45.954Z,101444.13
2019-01-04T10:00:50.207Z,101434.58
2019-01-04T10:04:54.486Z,101432.31
2019-01-04T10:08:58.761Z,101425.30
2019-01-04T10:13:03.042Z,101427.55
2019-01-04T10:17:07.339Z,101420.09
2019-01-04T10:21:11.693Z,101406.20
2019-01-04T10:25:16.282Z,101409.63
2019-01-04T10:29:20.607Z,101404.08
2019-01-04T10:33:24.838Z,101395.50
2019-01-04T10:37:29.110Z,101389.97
2019-01-04T10:41:33.387Z,101387.02
2019-01-04T10:45:37.630Z,101387.55
2019-01-04T10:49:41.893Z,101384.78
2019-01-04T10:53:46.130Z,101371.90
2019-01-04T10:57:50.403Z,101362.06
2019-01-04T11:01:54.684Z,101352.70
2019-01-04T11:05:58.911Z,101343.13
2019-01-04T11:10:03.160Z,101326.59
2019-01-04T11:14:07.430Z,101319.83
2019-01-04T11:18:11.753Z,101321.79
2019-01-04T11:22:54.063Z,101315.05
2019-01-04T11:27:03.921Z,101307.84
2019-01-04T11:31:30.403Z,101303.85
2019-01-04T11:36:12.731Z,101298.97
2019-01-04T11:40:55.050Z,101293.93
2019-01-04T11:45:21.392Z,101286.48
2019-01-04T11:50:03.720Z,101296.61
2019-01-04T11:54:12.784Z,101281.95
2019-01-04T11:58:17.034Z,101276.48
2019-01-04T12:02:26.369Z,101270.02
2019-01-04T12:06:27.379Z,101273.09
2019-01-04T12:10:31.647Z,101266.33
2019-01-04T12:14:41.214Z,101262.83
2019-01-04T12:18:41.876Z,101258.42
2019-01-04T12:22:46.116Z,101242.28
2019-01-04T12:26:50.379Z,101241.80
2019-01-04T12:30:55.050Z,101239.52
2019-01-04T12:34:59.307Z,101237.02
2019-01-04T12:43:47.925Z,101224.15
2019-01-04T12:47:53.166Z,101229.42
2019-01-04T12:51:57.466Z,101216.47
2019-01-04T12:56:01.698Z,101210.20
2019-01-04T13:00:07.538Z,101200.27
2019-01-04T13:04:11.753Z,101201.94
2019-01-04T13:08:15.994Z,101201.55
2019-01-04T13:12:20.246Z,101202.95
2019-01-04T13:16:24.511Z,101203.53
2019-01-04T13:20:28.745Z,101196.86
2019-01-04T13:24:32.995Z,101194.38
2019-01-04T13:28:37.275Z,101184.93
2019-01-04T13:32:41.512Z,101191.68
2019-01-04T13:36:45.808Z,101184.11
2019-01-04T13:40:50.013Z,101186.89
2019-01-04T13:44:54.285Z,101179.13
2019-01-04T13:48:58.511Z,101176.92
2019-01-04T13:53:02.781Z,101179.99
2019-01-04T13:57:07.066Z,101182.45
2019-01-04T14:01:11.301Z,101180.47
2019-01-04T14:05:15.569Z,101174.97
2019-01-04T14:09:19.828Z,101161.65
2019-01-04T14:13:24.089Z,101161.03
2019-01-04T14:17:28.329Z,101156.47
2019-01-04T14:21:32.555Z,101145.70
2019-01-04T14:25:36.825Z,101137.53
2019-01-04T14:29:41.085Z,101126.88
2019-01-04T14:33:45.376Z,101128.17
2019-01-04T14:37:49.667Z,101128.08
2019-01-04T14:41:53.920Z,101121.31
2019-01-04T14:45:58.181Z,101110.95
2019-01-04T14:50:02.539Z,101101.52
2019-01-04T14:54:06.799Z,101089.86
2019-01-04T14:58:11.055Z,101087.75
2019-01-04T15:02:15.311Z,101079.10
2019-01-04T15:06:19.576Z,101071.63
2019-01-04T15:10:23.769Z,101068.53
2019-01-04T15:14:28.035Z,101059.98
2019-01-04T15:18:32.531Z,101056.78
2019-01-04T15:22:36.830Z,101056.20
2019-01-04T15:26:41.112Z,101055.11
2019-01-04T15:30:45.365Z,101057.39
2019-01-04T15:34:49.637Z,101053.31
2019-01-04T15:38:53.872Z,101044.56
2019-01-04T15:42:58.463Z,101038.16
2019-01-04T15:47:02.732Z,101037.16
2019-01-04T15:51:07.008Z,101028.31
2019-01-04T15:55:11.589Z,101034.48
2019-01-04T15:59:15.815Z,101025.10
2019-01-04T16:03:20.102Z,101016.95
2019-01-04T16:07:24.369Z,101005.88
2019-01-04T16:11:29.005Z,100999.70
2019-01-04T16:15:33.234Z,100998.20
2019-01-04T16:19:37.525Z,100993.91
2019-01-04T16:23:41.759Z,100988.73
2019-01-04T16:27:46.012Z,100974.58
2019-01-04T16:31:50.239Z,100980.27
2019-01-04T16:35:54.521Z,100970.38
2019-01-04T16:39:59.108Z,100970.89
2019-01-04T16:44:07.253Z,100960.13
2019-01-04T16:48:09.348Z,100955.83
2019-01-04T16:52:13.578Z,100946.28
2019-01-04T16:56:17.815Z,100941.77
2019-01-04T17:00:22.062Z,100935.80
2019-01-04T17:04:26.358Z,100929.48
2019-01-04T17:08:30.582Z,100923.20
2019-01-04T17:12:34.860Z,100921.59
2019-01-04T17:16:39.149Z,100916.52
2019-01-04T17:20:43.427Z,100902.55
2019-01-04T17:24:48.050Z,100904.42
2019-01-04T17:28:52.240Z,100897.75
2019-01-04T17:32:56.557Z,100890.95
2019-01-04T17:37:00.835Z,100892.73
2019-01-04T17:41:05.110Z,100894.12
2019-01-04T17:45:09.590Z,100886.12
2019-01-04T17:49:13.819Z,100880.63
2019-01-04T17:53:18.226Z,100868.67
2019-01-04T17:57:22.987Z,100863.58
2019-01-04T18:01:27.458Z,100865.55
2019-01-04T18:05:31.948Z,100856.88
2019-01-04T18:09:36.304Z,100858.17
2019-01-04T18:13:40.758Z,100851.70
2019-01-04T18:17:44.992Z,100835.73
2019-01-04T18:21:49.256Z,100843.09
2019-01-04T18:25:53.515Z,100835.00
2019-01-04T18:29:57.847Z,100827.63
2019-01-04T18:34:02.135Z,100830.45
2019-01-04T18:38:06.446Z,100827.13
2019-01-04T18:42:10.712Z,100828.52
2019-01-04T18:46:14.972Z,100829.91
2019-01-04T18:50:22.244Z,100825.12
2019-01-04T18:54:26.459Z,100818.05
2019-01-04T18:58:30.740Z,100815.88
2019-01-04T19:02:34.969Z,100812.81
2019-01-04T19:06:39.251Z,100811.19
2019-01-04T19:10:43.520Z,100802.59
2019-01-04T19:14:47.776Z,100795.88
2019-01-04T19:19:10.967Z,100786.75
2019-01-04T19:23:15.247Z,100789.40
2019-01-04T19:27:19.455Z,100787.95
2019-01-04T19:35:54.397Z,100782.03
2019-01-04T19:39:58.676Z,100777.03
2019-01-04T19:44:02.951Z,100775.73
2019-01-04T19:48:07.136Z,100759.95
2019-01-04T19:52:11.416Z,100770.41
2019-01-04T19:56:15.711Z,100767.91
2019-01-04T20:00:19.934Z,100771.80
2019-01-04T20:04:24.216Z,100781.44
2019-01-04T20:14:31.037Z,100778.19
2019-01-04T20:23:36.490Z,100768.14
2019-01-04T20:27:49.233Z,100766.34
2019-01-04T20:32:09.099Z,100756.80
2019-01-04T20:36:32.235Z,100762.27
2019-01-04T20:40:57.935Z,100757.08
2019-01-04T20:45:21.149Z,100741.38
2019-01-04T20:49:44.394Z,100736.19
2019-01-04T20:54:07.596Z,100726.20
2019-01-04T20:58:30.765Z,100730.92
2019-01-04T21:02:54.368Z,100727.82
2019-01-04T21:07:08.549Z,100723.42
2019-01-04T21:11:31.746Z,100721.34
2019-01-04T21:15:54.920Z,100714.16
2019-01-04T21:20:18.136Z,100724.20
2019-01-04T21:24:41.326Z,100729.06
2019-01-04T21:29:04.493Z,100716.42
2019-01-04T21:33:27.698Z,100712.21
2019-01-04T21:37:50.894Z,100713.09
2019-01-04T21:42:14.081Z,100710.12
2019-01-04T21:46:37.406Z,100710.27
2019-01-04T21:51:00.980Z,100712.86
2019-01-04T21:55:24.201Z,100714.16
2019-01-04T21:59:47.379Z,100710.59
2019-01-04T22:04:10.601Z,100708.18
2019-01-04T22:08:33.783Z,100705.34
2019-01-04T22:12:56.962Z,100699.75
2019-01-04T22:17:21.971Z,100694.89
2019-01-04T22:21:45.177Z,100692.80
2019-01-04T22:30:33.649Z,100679.00
2019-01-04T22:34:51.669Z,100680.63
2019-01-04T22:39:14.938Z,100673.44
2019-01-04T22:43:38.134Z,100660.06
2019-01-04T22:48:01.308Z,100661.03
2019-01-04T22:52:24.527Z,100659.91
2019-01-04T22:56:47.733Z,100657.78
2019-01-04T23:01:30.559Z,100655.95
2019-01-04T23:14:49.866Z,100640.46
2019-01-04T23:19:13.042Z,100630.25
2019-01-04T23:23:36.215Z,100617.63
2019-01-04T23:27:59.407Z,100610.81
2019-01-04T23:32:16.198Z,100614.88
2019-01-04T23:36:40.559Z,100599.60
2019-01-04T23:45:29.071Z,100588.09
2019-01-04T23:49:52.298Z,100586.97
2019-01-04T23:54:15.522Z,100589.05
2019-01-04T23:58:38.678Z,100581.27
